Time;durP1;ratioP1;P1;durP2;ratioP2;P2;SDS_P1;SDS_P2;PMS_P1;PMS_P2;Temp;Humidity;BMP_temperature;BMP_pressure;BME280_temperature;BME280_humidity;BME280_pressure;Samples;Min_cycle;Max_cycle;Signal;HPM_P1;HPM_P2
2021/06/18 00:00:09;;;;;;;7.20;6.80;;;;;;;23.87;62.68;65089.00;5104855;27;20252;-73
2021/06/18 00:02:37;;;;;;;6.17;5.67;;;;;;;23.86;62.75;65281.34;5103900;27;20252;-72
2021/06/18 00:05:04;;;;;;;6.17;5.83;;;;;;;23.80;62.99;65266.72;5104521;27;20229;-73
2021/06/18 00:07:30;;;;;;;5.93;5.53;;;;;;;23.81;62.88;65449.63;5103731;27;20207;-73
2021/06/18 00:09:58;;;;;;;6.53;6.10;;;;;;;23.70;63.68;65345.91;5103500;27;20264;-72
2021/06/18 00:12:24;;;;;;;6.67;6.23;;;;;;;23.67;63.82;65472.03;5103995;27;20208;-72
2021/06/18 00:14:51;;;;;;;6.13;5.83;;;;;;;23.54;63.85;65166.88;5104730;27;20264;-73
2021/06/18 00:17:17;;;;;;;6.63;6.10;;;;;;;23.55;63.97;65564.81;5104084;27;20325;-72
2021/06/18 00:19:43;;;;;;;5.87;5.57;;;;;;;23.57;63.60;65783.69;5103668;28;20203;-73
2021/06/18 00:22:10;;;;;;;6.07;5.73;;;;;;;23.58;63.14;65866.13;5103667;27;20210;-72
2021/06/18 00:24:36;;;;;;;6.67;6.20;;;;;;;23.56;63.15;65956.91;5103071;28;20786;-73
2021/06/18 00:27:04;;;;;;;5.93;5.63;;;;;;;23.58;62.44;66001.44;5104080;27;20207;-72
2021/06/18 00:29:31;;;;;;;7.27;6.57;;;;;;;23.54;63.35;66051.84;5104121;27;20206;-73
2021/06/18 00:31:57;;;;;;;6.33;5.93;;;;;;;23.51;62.71;66030.53;5103480;27;20778;-72
2021/06/18 00:34:23;;;;;;;6.00;5.53;;;;;;;23.57;62.09;66288.31;5103068;27;20256;-72
2021/06/18 00:36:50;;;;;;;5.87;5.57;;;;;;;23.61;62.23;66567.09;5104093;27;20214;-72
2021/06/18 00:39:16;;;;;;;6.10;5.70;;;;;;;23.55;62.17;66338.31;5104016;27;20198;-72
2021/06/18 00:41:42;;;;;;;5.93;5.43;;;;;;;23.51;61.97;66244.53;5103415;27;20203;-73
2021/06/18 00:44:10;;;;;;;5.90;5.50;;;;;;;23.51;62.04;66281.50;5102422;27;20227;-72
2021/06/18 00:46:36;;;;;;;5.40;5.00;;;;;;;23.46;61.58;66201.84;5103374;27;20203;-72
2021/06/18 00:49:03;;;;;;;7.93;5.60;;;;;;;23.49;61.87;66482.09;5103363;28;20203;-72
2021/06/18 00:51:30;;;;;;;5.53;5.13;;;;;;;23.36;58.55;64951.94;5104090;27;20200;-73
2021/06/18 00:53:57;;;;;;;7.20;6.50;;;;;;;22.77;61.16;63057.63;5102593;27;20203;-72
2021/06/18 00:56:23;;;;;;;7.93;7.43;;;;;;;21.64;67.06;60659.47;5103582;27;20393;-72
2021/06/18 00:58:50;;;;;;;8.67;8.17;;;;;;;21.37;68.13;61534.81;5103213;28;20207;-72
2021/06/18 01:01:18;;;;;;;8.37;7.57;;;;;;;21.51;67.54;62922.47;5103377;28;20230;-73
2021/06/18 01:03:44;;;;;;;7.87;7.30;;;;;;;21.66;66.96;63911.56;5102680;28;20257;-72
2021/06/18 01:06:17;;;;;;;7.83;7.33;;;;;;;21.84;66.23;64742.50;5103675;28;20223;-72
2021/06/18 01:08:47;;;;;;;7.53;6.93;;;;;;;21.96;65.62;65209.00;5101510;28;20211;-72
2021/06/18 01:11:19;;;;;;;6.77;6.37;;;;;;;22.15;66.41;66291.41;5101829;28;20207;-72
2021/06/18 01:13:53;;;;;;;6.93;6.50;;;;;;;22.27;66.61;67030.25;5101218;28;20266;-73
2021/06/18 01:16:31;;;;;;;6.77;6.27;;;;;;;22.27;65.99;66835.09;5102002;28;20797;-73
2021/06/18 01:19:00;;;;;;;7.60;6.73;;;;;;;22.32;66.31;67185.75;5101492;28;20689;-73
2021/06/18 01:21:29;;;;;;;7.17;6.57;;;;;;;22.39;66.25;67555.22;5105178;28;20640;-73
2021/06/18 01:24:17;;;;;;;7.13;6.63;;;;;;;22.43;65.59;67625.81;5106112;28;20254;-72
2021/06/18 01:26:52;;;;;;;6.80;6.40;;;;;;;22.46;64.13;67430.81;5106160;28;20260;-72
2021/06/18 01:29:22;;;;;;;6.47;6.03;;;;;;;22.30;65.19;66940.81;5106341;28;20273;-73
2021/06/18 01:31:51;;;;;;;7.50;6.90;;;;;;;22.23;65.90;66901.69;5106185;28;20211;-72
2021/06/18 01:34:21;;;;;;;6.63;5.97;;;;;;;22.06;66.88;66582.28;5106045;28;20211;-73
2021/06/18 01:36:51;;;;;;;6.47;5.83;;;;;;;21.92;66.66;66176.25;5105746;28;20664;-73
2021/06/18 01:39:18;;;;;;;8.63;5.20;;;;;;;22.16;63.65;66796.69;5105982;28;20263;-73
2021/06/18 01:41:48;;;;;;;6.53;5.93;;;;;;;22.20;65.53;67449.44;5106432;28;20211;-72
2021/06/18 01:44:16;;;;;;;6.47;5.97;;;;;;;22.26;65.70;67788.72;5105597;28;20689;-73
2021/06/18 01:46:44;;;;;;;5.50;5.10;;;;;;;22.17;64.69;67111.63;5105407;28;20207;-73
2021/06/18 01:49:13;;;;;;;5.30;4.90;;;;;;;22.18;64.44;67251.97;5106499;28;20248;-73
2021/06/18 01:51:40;;;;;;;6.10;5.60;;;;;;;22.27;65.64;68043.09;5106118;28;20214;-73
2021/06/18 01:54:08;;;;;;;5.73;5.20;;;;;;;22.20;65.23;67610.31;5104779;28;20203;-72
2021/06/18 01:56:37;;;;;;;5.40;4.90;;;;;;;22.17;64.54;67422.22;5104940;28;20280;-73
2021/06/18 01:59:05;;;;;;;5.73;5.33;;;;;;;22.19;64.59;67630.22;5105655;28;20750;-72
2021/06/18 02:01:34;;;;;;;5.70;5.40;;;;;;;22.29;64.37;68145.09;5105983;28;20850;-72
2021/06/18 02:04:05;;;;;;;6.53;6.03;;;;;;;22.22;64.16;67712.84;5104596;28;20227;-73
2021/06/18 02:06:33;;;;;;;6.07;5.67;;;;;;;22.13;64.64;67578.47;5105586;28;20314;-72
2021/06/18 02:09:01;;;;;;;6.00;5.43;;;;;;;22.09;65.59;67803.25;5105860;28;20211;-73
2021/06/18 02:11:30;;;;;;;6.40;5.90;;;;;;;22.12;65.49;68042.03;5105294;28;20207;-73
2021/06/18 02:13:58;;;;;;;6.27;5.67;;;;;;;22.13;65.71;68346.50;5105602;28;20199;-73
2021/06/18 02:16:26;;;;;;;7.00;6.60;;;;;;;21.90;67.59;67779.13;5104637;27;20227;-73
2021/06/18 02:18:54;;;;;;;7.27;6.67;;;;;;;21.77;68.80;67831.06;5105706;28;20271;-73
2021/06/18 02:21:24;;;;;;;9.13;8.43;;;;;;;21.72;69.31;68123.09;5127114;28;20203;-72
2021/06/18 02:23:52;;;;;;;7.27;6.80;;;;;;;21.81;69.66;68800.00;5130401;28;20336;-72
2021/06/18 02:26:19;;;;;;;7.23;6.77;;;;;;;21.87;68.42;68886.19;5131446;28;20252;-72
2021/06/18 02:28:45;;;;;;;8.83;6.83;;;;;;;21.87;68.85;69036.47;5130516;28;20625;-74
2021/06/18 02:31:14;;;;;;;8.93;8.27;;;;;;;21.70;70.28;68758.03;5110487;28;20502;-72
2021/06/18 02:33:40;;;;;;;9.23;8.63;;;;;;;21.47;71.40;68336.31;5104212;28;20248;-72
2021/06/18 02:36:07;;;;;;;10.13;9.50;;;;;;;21.31;72.35;68255.53;5105261;28;20232;-73
2021/06/18 02:38:35;;;;;;;11.53;9.60;;;;;;;21.19;73.38;68360.00;5105249;28;20579;-73
2021/06/18 02:41:01;;;;;;;10.37;9.67;;;;;;;21.14;73.58;68651.72;5105230;28;20808;-73
2021/06/18 02:43:27;;;;;;;10.63;9.37;;;;;;;21.14;73.80;69049.44;5104644;28;20798;-72
2021/06/18 02:45:54;;;;;;;8.93;8.30;;;;;;;21.21;73.59;69561.47;5104853;28;20231;-73
2021/06/18 02:48:25;;;;;;;9.20;8.50;;;;;;;21.10;73.84;69379.78;5104856;28;20253;-73
2021/06/18 02:50:58;;;;;;;10.73;9.73;;;;;;;20.95;74.70;69269.78;5104705;28;20669;-73
2021/06/18 02:53:29;;;;;;;10.37;9.63;;;;;;;20.88;75.25;69466.88;5104157;28;20215;-73
2021/06/18 02:55:59;;;;;;;9.47;8.97;;;;;;;20.81;75.55;69630.25;5104486;28;20642;-73
2021/06/18 02:58:31;;;;;;;9.50;8.77;;;;;;;20.77;75.86;69841.38;5104843;28;20211;-73
2021/06/18 03:00:58;;;;;;;10.40;9.70;;;;;;;20.74;75.82;70067.44;5104952;28;20244;-72
2021/06/18 03:03:29;;;;;;;11.30;10.20;;;;;;;20.63;76.35;70060.13;5104206;27;20209;-72
2021/06/18 03:05:59;;;;;;;11.00;10.03;;;;;;;20.66;76.14;70550.16;5104362;28;20227;-73
2021/06/18 03:08:31;;;;;;;10.20;9.23;;;;;;;20.78;75.99;71220.44;5104344;28;20276;-73
2021/06/18 03:10:59;;;;;;;9.23;7.30;;;;;;;20.96;75.62;72039.53;5104678;28;20289;-73
2021/06/18 03:13:30;;;;;;;8.00;7.20;;;;;;;21.16;74.91;72667.25;5103577;28;20231;-73
2021/06/18 03:15:57;;;;;;;9.27;8.53;;;;;;;21.15;74.31;72455.72;5104701;28;20275;-73
2021/06/18 03:18:25;;;;;;;8.80;8.13;;;;;;;21.19;74.29;72718.44;5103788;28;20550;-74
2021/06/18 03:20:56;;;;;;;7.80;7.20;;;;;;;21.21;74.40;72763.13;5103739;28;20264;-73
2021/06/18 03:23:24;;;;;;;9.30;8.60;;;;;;;21.05;74.50;72102.69;5103433;28;20214;-73
2021/06/18 03:25:52;;;;;;;9.00;8.20;;;;;;;20.89;75.04;71743.72;5104312;28;20227;-72
2021/06/18 03:28:23;;;;;;;9.17;8.37;;;;;;;20.86;75.34;71930.34;5103851;28;20207;-73
2021/06/18 03:30:50;;;;;;;8.33;7.70;;;;;;;21.07;74.66;72888.66;5103951;28;20253;-73
2021/06/18 03:33:18;;;;;;;7.23;6.67;;;;;;;21.10;74.62;73047.94;5104306;28;20264;-73
2021/06/18 03:35:46;;;;;;;8.57;7.87;;;;;;;20.97;74.49;72452.50;5103488;28;20223;-73
2021/06/18 03:38:13;;;;;;;7.67;7.07;;;;;;;21.09;74.28;73109.97;5103927;28;20203;-73
2021/06/18 03:40:41;;;;;;;8.23;7.50;;;;;;;21.18;73.70;73381.63;5103501;27;20207;-72
2021/06/18 03:43:09;;;;;;;8.53;7.77;;;;;;;21.24;73.49;73492.00;5103760;28;20290;-73
2021/06/18 03:45:43;;;;;;;8.27;7.77;;;;;;;21.06;74.03;72779.31;5102757;28;20713;-72
2021/06/18 03:48:11;;;;;;;8.13;7.63;;;;;;;20.85;75.17;72308.50;5102681;27;20605;-72
2021/06/18 03:50:38;;;;;;;8.60;7.90;;;;;;;20.84;75.40;72670.88;5103813;28;20207;-72
2021/06/18 03:53:04;;;;;;;9.00;8.17;;;;;;;20.99;74.78;73350.50;5103744;28;20261;-72
2021/06/18 03:55:31;;;;;;;8.87;8.17;;;;;;;21.03;74.53;73445.81;5102873;27;20772;-73
2021/06/18 03:58:00;;;;;;;8.83;8.13;;;;;;;21.08;74.92;73740.84;5103870;28;20414;-73
2021/06/18 04:00:28;;;;;;;9.07;8.37;;;;;;;21.06;74.51;73490.50;5104174;28;20702;-73
2021/06/18 04:02:57;;;;;;;8.40;7.70;;;;;;;21.15;74.35;74066.13;5103037;28;20249;-73
2021/06/18 04:05:26;;;;;;;9.07;8.20;;;;;;;21.21;74.15;74292.66;5103264;28;20277;-73
2021/06/18 04:07:54;;;;;;;6.73;6.33;;;;;;;21.34;74.08;74805.16;5103185;28;20207;-73
2021/06/18 04:10:22;;;;;;;6.63;6.07;;;;;;;21.45;73.98;75095.72;5103045;28;20214;-73
2021/06/18 04:12:50;;;;;;;8.53;8.03;;;;;;;21.45;72.81;74720.31;5102270;28;20207;-73
2021/06/18 04:15:18;;;;;;;7.67;7.17;;;;;;;21.50;72.91;74970.16;5103049;28;20224;-72
2021/06/18 04:17:45;;;;;;;7.73;7.00;;;;;;;21.55;73.46;75259.00;5102881;28;20264;-72
2021/06/18 04:20:15;;;;;;;7.47;6.97;;;;;;;21.64;72.94;75430.34;5103412;28;20731;-73
2021/06/18 04:22:41;;;;;;;6.60;6.10;;;;;;;21.70;73.10;75628.19;5101786;28;20252;-73
2021/06/18 04:25:09;;;;;;;14.93;7.17;;;;;;;21.74;72.94;75747.56;5102953;28;20766;-73
2021/06/18 04:27:36;;;;;;;6.83;6.27;;;;;;;21.84;72.31;75910.38;5102370;28;20256;-73
2021/06/18 04:30:02;;;;;;;6.73;6.27;;;;;;;21.90;72.38;76049.59;5102963;28;20209;-73
2021/06/18 04:32:28;;;;;;;7.33;6.73;;;;;;;21.83;72.26;75578.94;5102803;28;20211;-73
2021/06/18 04:34:55;;;;;;;6.70;6.20;;;;;;;21.82;72.25;75564.44;5102907;28;20311;-73
2021/06/18 04:37:22;;;;;;;6.93;6.43;;;;;;;21.83;72.17;75528.13;5102936;28;20215;-73
2021/06/18 04:39:49;;;;;;;7.03;6.43;;;;;;;21.93;72.13;75992.75;5102823;28;20203;-72
2021/06/18 04:42:15;;;;;;;6.97;6.47;;;;;;;22.02;71.90;76236.91;5102932;28;20207;-73
2021/06/18 04:44:41;;;;;;;7.50;6.80;;;;;;;22.10;71.79;76477.28;5101824;28;20235;-73
2021/06/18 04:47:08;;;;;;;7.10;6.40;;;;;;;22.15;71.66;76528.06;5103014;28;20292;-75
2021/06/18 04:49:34;;;;;;;7.40;6.80;;;;;;;22.12;71.76;76313.38;5102436;28;20230;-75
2021/06/18 04:52:01;;;;;;;6.97;6.30;;;;;;;22.20;71.39;76436.81;5101405;28;20814;-75
2021/06/18 04:54:29;;;;;;;8.43;7.30;;;;;;;22.17;70.29;75991.50;5102439;28;20256;-75
2021/06/18 04:56:55;;;;;;;6.87;6.37;;;;;;;22.18;71.08;76154.03;5101205;28;20244;-75
2021/06/18 04:59:21;;;;;;;8.17;7.53;;;;;;;22.11;70.15;75556.31;5103349;27;20882;-74
2021/06/18 05:01:48;;;;;;;8.40;7.80;;;;;;;22.05;71.26;75477.22;5102531;28;20677;-74
2021/06/18 05:04:14;;;;;;;9.00;8.30;;;;;;;21.92;71.78;75059.66;5102323;28;20222;-75
2021/06/18 05:06:41;;;;;;;8.10;7.50;;;;;;;21.81;71.55;74631.00;5103408;28;20211;-74
2021/06/18 05:09:07;;;;;;;8.73;8.03;;;;;;;21.91;71.22;75098.00;5103200;28;20549;-75
2021/06/18 05:11:35;;;;;;;7.10;6.60;;;;;;;22.05;71.68;75851.78;5103096;28;20199;-74
2021/06/18 05:14:01;;;;;;;8.17;7.53;;;;;;;22.04;70.79;75581.63;5101941;28;20203;-74
2021/06/18 05:16:28;;;;;;;8.33;7.73;;;;;;;22.08;71.02;75715.59;5102183;28;20265;-74
2021/06/18 05:18:54;;;;;;;8.97;8.17;;;;;;;22.15;70.89;76068.84;5101940;28;20703;-75
2021/06/18 05:21:20;;;;;;;8.63;7.83;;;;;;;22.27;70.87;76488.25;5102742;28;20277;-76
2021/06/18 05:23:47;;;;;;;7.30;6.80;;;;;;;22.40;71.33;77054.56;5102883;28;20203;-76
2021/06/18 05:26:13;;;;;;;7.87;7.10;;;;;;;22.47;70.51;76981.13;5101869;28;20225;-75
2021/06/18 05:28:41;;;;;;;8.73;6.50;;;;;;;22.51;70.83;77121.25;5101998;28;20463;-76
2021/06/18 05:31:07;;;;;;;8.77;7.03;;;;;;;22.60;70.79;77418.81;5101788;28;20195;-75
2021/06/18 05:33:33;;;;;;;8.23;7.63;;;;;;;22.69;70.18;77506.75;5101954;28;20203;-74
2021/06/18 05:36:00;;;;;;;9.67;8.97;;;;;;;22.64;68.09;76519.38;5102784;28;20269;-75
2021/06/18 05:38:26;;;;;;;9.27;8.43;;;;;;;22.51;68.71;75918.00;5102472;28;20206;-75
2021/06/18 05:40:53;;;;;;;10.03;9.23;;;;;;;22.54;69.13;76130.78;5102413;28;20292;-76
2021/06/18 05:43:19;;;;;;;9.00;8.23;;;;;;;22.59;69.29;76438.78;5102197;28;20215;-75
2021/06/18 05:45:47;;;;;;;7.33;6.63;;;;;;;22.73;69.77;77101.91;5102671;28;20229;-75
2021/06/18 05:48:13;;;;;;;7.23;6.80;;;;;;;22.75;71.17;77480.94;5102990;28;20264;-74
2021/06/18 05:50:40;;;;;;;7.20;6.70;;;;;;;22.85;70.98;77791.91;5102346;28;20616;-75
2021/06/18 05:53:06;;;;;;;7.90;7.10;;;;;;;22.94;70.17;77968.66;5102141;28;20808;-75
2021/06/18 05:55:33;;;;;;;8.10;7.33;;;;;;;22.93;71.01;77863.41;5101950;28;20221;-77
2021/06/18 05:57:59;;;;;;;7.53;6.83;;;;;;;22.99;70.75;78070.63;5102766;28;20199;-74
2021/06/18 06:00:26;;;;;;;8.07;7.47;;;;;;;23.12;70.00;78280.59;5102305;28;20203;-74
2021/06/18 06:02:54;;;;;;;7.40;6.70;;;;;;;23.18;70.28;78407.13;5101596;28;20205;-74
2021/06/18 06:05:20;;;;;;;7.53;7.03;;;;;;;23.22;70.53;78504.50;5101175;28;20719;-74
2021/06/18 06:07:48;;;;;;;8.67;7.97;;;;;;;23.29;70.39;78662.19;5103445;28;20253;-74
2021/06/18 06:10:15;;;;;;;9.20;8.50;;;;;;;23.33;70.87;78790.13;5104753;28;20257;-74
2021/06/18 06:12:42;;;;;;;8.60;8.10;;;;;;;23.35;70.58;78752.41;5105256;28;20212;-75
2021/06/18 06:15:10;;;;;;;8.77;8.17;;;;;;;23.39;71.50;78959.16;5105081;28;20635;-74
2021/06/18 06:17:36;;;;;;;10.00;9.30;;;;;;;23.30;70.69;78274.13;5105183;28;20260;-74
2021/06/18 06:20:05;;;;;;;8.73;8.13;;;;;;;23.38;71.11;78690.16;5106128;28;20199;-74
2021/06/18 06:22:31;;;;;;;9.93;8.70;;;;;;;23.49;70.83;79022.25;5104727;28;20272;-74
2021/06/18 06:24:59;;;;;;;9.40;8.60;;;;;;;23.56;71.01;79281.53;5105489;28;20232;-74
2021/06/18 06:27:25;;;;;;;10.13;9.33;;;;;;;23.58;71.64;79400.88;5105226;27;20207;-74
2021/06/18 06:29:51;;;;;;;10.97;10.07;;;;;;;23.40;72.20;78557.72;5105444;28;20208;-74
2021/06/18 06:32:18;;;;;;;10.20;9.60;;;;;;;23.31;72.48;78276.13;5105456;28;20215;-74
2021/06/18 06:34:44;;;;;;;11.00;10.23;;;;;;;23.28;72.94;78221.13;5105434;28;20477;-74
2021/06/18 06:37:12;;;;;;;10.23;9.60;;;;;;;23.37;72.86;78707.38;5105255;28;20199;-75
2021/06/18 06:39:39;;;;;;;10.83;10.03;;;;;;;23.46;72.18;78808.88;5104790;28;20207;-74
2021/06/18 06:42:05;;;;;;;9.50;8.83;;;;;;;23.53;72.02;79078.69;5104493;28;21107;-74
2021/06/18 06:44:32;;;;;;;10.10;9.10;;;;;;;23.65;71.40;79334.75;5105257;28;20224;-75
2021/06/18 06:46:59;;;;;;;8.90;8.30;;;;;;;23.76;70.96;79508.72;5104822;28;20233;-74
2021/06/18 06:49:25;;;;;;;9.80;9.00;;;;;;;23.87;70.87;79770.28;5104612;28;20211;-75
2021/06/18 06:51:52;;;;;;;10.07;9.27;;;;;;;23.99;70.31;79943.09;5105025;28;20213;-73
2021/06/18 06:54:20;;;;;;;11.17;10.00;;;;;;;24.06;70.11;80026.25;5105307;28;20210;-75
2021/06/18 06:56:46;;;;;;;10.37;9.57;;;;;;;24.11;70.28;80006.53;5104932;28;20203;-74
2021/06/18 06:59:15;;;;;;;10.90;10.23;;;;;;;24.16;70.07;79895.88;5104518;28;20299;-74
2021/06/18 07:01:41;;;;;;;9.70;9.00;;;;;;;24.13;69.81;79651.00;5103544;28;20208;-73
2021/06/18 07:04:08;;;;;;;10.20;9.50;;;;;;;24.17;70.43;79757.28;5101768;28;20210;-74
2021/06/18 07:06:36;;;;;;;10.40;9.60;;;;;;;24.12;70.73;79501.09;5102678;28;20660;-73
2021/06/18 07:09:03;;;;;;;10.73;9.93;;;;;;;24.24;69.98;79837.75;5103616;28;20293;-74
2021/06/18 07:11:30;;;;;;;9.53;8.83;;;;;;;24.34;69.91;80028.50;5104860;28;20256;-74
2021/06/18 07:13:57;;;;;;;10.17;9.53;;;;;;;24.44;70.21;80285.69;5104312;28;20206;-74
2021/06/18 07:16:24;;;;;;;9.53;8.87;;;;;;;24.49;70.13;80407.41;5104215;28;21386;-74
2021/06/18 07:18:50;;;;;;;9.90;9.17;;;;;;;24.50;70.14;80321.16;5104277;28;20218;-74
2021/06/18 07:21:17;;;;;;;10.00;9.20;;;;;;;24.64;70.08;80655.00;5104522;28;20256;-74
2021/06/18 07:23:43;;;;;;;10.00;9.20;;;;;;;24.71;69.28;80532.44;5103692;28;20203;-75
2021/06/18 07:26:09;;;;;;;10.20;9.50;;;;;;;24.76;69.18;80522.69;5102095;28;20253;-73
2021/06/18 07:28:37;;;;;;;9.53;8.77;;;;;;;24.77;69.84;80564.56;5104257;28;20271;-74
2021/06/18 07:31:04;;;;;;;9.80;9.10;;;;;;;24.87;68.83;80630.06;5103708;28;20649;-75
2021/06/18 07:33:33;;;;;;;10.00;9.30;;;;;;;24.92;68.77;80603.06;5104189;28;20680;-75
2021/06/18 07:35:59;;;;;;;10.63;9.87;;;;;;;24.94;70.00;80727.34;5104098;28;20821;-75
2021/06/18 07:38:26;;;;;;;10.20;9.47;;;;;;;24.97;71.63;80991.91;5104340;28;20206;-75
2021/06/18 07:40:52;;;;;;;9.83;9.13;;;;;;;25.09;70.57;81152.00;5104225;28;20211;-75
2021/06/18 07:43:18;;;;;;;9.07;8.47;;;;;;;25.18;69.42;81129.84;5103943;28;20207;-75
2021/06/18 07:45:46;;;;;;;10.20;9.20;;;;;;;25.25;69.37;81087.63;5104124;28;20636;-76
2021/06/18 07:48:13;;;;;;;9.77;9.10;;;;;;;25.33;69.71;81349.34;5104244;28;20207;-75
2021/06/18 07:50:41;;;;;;;10.00;9.40;;;;;;;25.40;69.66;81355.66;5104219;28;20218;-75
2021/06/18 07:53:07;;;;;;;10.37;9.47;;;;;;;25.41;71.16;81555.84;5103509;28;20291;-75
2021/06/18 07:55:34;;;;;;;9.90;9.20;;;;;;;25.42;70.28;81224.75;5103892;28;20573;-75
2021/06/18 07:58:00;;;;;;;10.20;9.60;;;;;;;25.49;70.54;81425.91;5103796;28;20205;-76
2021/06/18 08:00:27;;;;;;;10.10;9.50;;;;;;;25.56;70.63;81627.19;5103868;28;20263;-75
2021/06/18 08:02:55;;;;;;;10.20;9.37;;;;;;;25.63;69.11;81386.06;5104367;28;20206;-75
2021/06/18 08:05:21;;;;;;;11.23;9.07;;;;;;;25.70;69.06;81436.34;5103967;28;20717;-76
2021/06/18 08:07:48;;;;;;;9.87;9.07;;;;;;;25.76;68.90;81289.59;5104450;28;20237;-75
2021/06/18 08:10:17;;;;;;;12.20;9.33;;;;;;;25.81;68.52;81130.78;5103862;28;20206;-76
2021/06/18 08:12:46;;;;;;;10.17;9.40;;;;;;;25.90;68.94;81466.00;5103383;28;20755;-75
2021/06/18 08:15:13;;;;;;;10.20;9.27;;;;;;;25.88;68.68;81020.66;5103857;28;20223;-76
2021/06/18 08:17:39;;;;;;;10.40;9.70;;;;;;;25.91;69.59;81254.44;5103848;28;20219;-76
2021/06/18 08:20:08;;;;;;;10.60;9.63;;;;;;;26.00;68.09;81154.34;5103580;28;20208;-73
2021/06/18 08:22:35;;;;;;;10.43;9.40;;;;;;;26.10;66.85;80949.09;5103335;28;20466;-75
2021/06/18 08:25:02;;;;;;;9.97;9.00;;;;;;;26.13;66.78;80759.53;5103823;28;20295;-75
2021/06/18 08:27:29;;;;;;;10.07;9.27;;;;;;;26.22;66.74;80978.91;5102905;28;20230;-76
2021/06/18 08:29:55;;;;;;;10.23;8.73;;;;;;;26.33;67.76;81422.22;5102780;28;20634;-75
2021/06/18 08:32:22;;;;;;;9.90;9.20;;;;;;;26.39;66.89;81275.97;5103324;28;20203;-74
2021/06/18 08:34:48;;;;;;;10.63;9.73;;;;;;;26.49;64.79;80737.59;5102814;28;20650;-76
2021/06/18 08:37:16;;;;;;;10.03;9.17;;;;;;;26.58;64.92;80872.53;5103108;28;20203;-75
2021/06/18 08:39:42;;;;;;;10.83;10.03;;;;;;;26.60;64.75;80557.50;5103357;28;20686;-75
2021/06/18 08:42:11;;;;;;;10.70;9.53;;;;;;;26.68;65.20;80832.25;5103016;28;20203;-75
2021/06/18 08:44:37;;;;;;;10.50;9.60;;;;;;;26.70;64.57;80390.66;5103495;28;20219;-76
2021/06/18 08:47:04;;;;;;;9.60;9.00;;;;;;;26.82;63.87;80547.63;5102853;28;20223;-76
2021/06/18 08:49:31;;;;;;;9.60;8.93;;;;;;;26.92;63.42;80445.97;5103677;28;20210;-75
2021/06/18 08:51:57;;;;;;;10.27;9.47;;;;;;;26.94;65.56;80750.63;5104758;28;20862;-75
2021/06/18 08:54:41;;;;;;;9.90;9.13;;;;;;;27.08;65.25;81158.47;5110399;28;20754;-75
2021/06/18 08:57:08;;;;;;;10.03;8.90;;;;;;;27.19;62.99;80559.47;5109671;28;20759;-75
2021/06/18 08:59:34;;;;;;;10.23;9.20;;;;;;;27.31;63.44;80786.66;5109581;28;20205;-74
2021/06/18 09:02:00;;;;;;;9.67;8.93;;;;;;;27.42;62.09;80662.31;5107268;28;20203;-73
2021/06/18 09:04:27;;;;;;;9.67;8.90;;;;;;;27.52;62.10;80585.25;5103138;28;20623;-76
2021/06/18 09:06:58;;;;;;;10.20;9.30;;;;;;;27.69;62.24;80988.81;5102534;28;20280;-75
2021/06/18 09:09:27;;;;;;;9.77;8.90;;;;;;;27.79;60.84;80668.88;5103035;28;20535;-75
2021/06/18 09:11:55;;;;;;;9.23;8.47;;;;;;;27.90;60.08;80429.59;5102719;28;20400;-76
2021/06/18 09:14:28;;;;;;;9.37;8.40;;;;;;;28.07;61.89;81151.84;5102601;28;20210;-76
2021/06/18 09:17:09;;;;;;;8.90;8.27;;;;;;;28.16;61.88;81238.34;5103094;28;20199;-76
2021/06/18 09:19:38;;;;;;;8.93;8.23;;;;;;;28.24;60.58;80774.47;5102890;28;20211;-76
2021/06/18 09:22:06;;;;;;;8.40;7.77;;;;;;;28.32;58.38;80031.38;5102787;28;20216;-76
2021/06/18 09:24:36;;;;;;;8.57;7.97;;;;;;;28.38;57.88;79676.22;5102547;28;20713;-75
2021/06/18 09:27:03;;;;;;;7.73;7.27;;;;;;;28.47;57.04;79169.44;5102512;28;20236;-74
2021/06/18 09:29:30;;;;;;;8.87;8.27;;;;;;;28.56;58.49;79693.84;5102960;28;20207;-76
2021/06/18 09:31:59;;;;;;;9.03;8.43;;;;;;;28.65;59.70;80058.81;5102132;28;20199;-76
2021/06/18 09:34:46;;;;;;;8.47;7.77;;;;;;;28.66;55.29;78305.22;5102545;28;20592;-75
2021/06/18 09:37:17;;;;;;;8.03;7.53;;;;;;;28.80;57.18;79114.19;5102688;28;20715;-75
2021/06/18 09:40:16;;;;;;;8.63;8.03;;;;;;;28.90;58.34;79351.50;5102798;28;20284;-75
2021/06/18 09:42:52;;;;;;;9.27;8.67;;;;;;;29.02;54.83;78148.56;5103974;28;20230;-75
2021/06/18 09:45:22;;;;;;;7.63;7.13;;;;;;;29.13;55.04;78346.97;5107318;27;20227;-75
2021/06/18 09:47:49;;;;;;;8.20;7.60;;;;;;;29.18;54.67;77788.81;5107032;27;20231;-75
2021/06/18 09:50:27;;;;;;;9.57;8.60;;;;;;;29.24;55.89;78182.41;5107164;27;20218;-76
2021/06/18 09:53:10;;;;;;;9.37;8.77;;;;;;;29.28;55.34;77679.00;5106018;28;20203;-74
2021/06/18 09:55:38;;;;;;;9.87;9.23;;;;;;;29.30;56.32;77599.41;5103573;28;20238;-73
2021/06/18 09:58:05;;;;;;;8.73;8.10;;;;;;;29.29;56.48;77408.25;5107432;27;20204;-75
2021/06/18 10:00:31;;;;;;;8.90;8.20;;;;;;;29.30;54.26;76387.72;5107035;27;20203;-75
2021/06/18 10:02:58;;;;;;;8.73;7.83;;;;;;;29.37;55.16;76632.03;5106321;27;20241;-74
2021/06/18 10:05:25;;;;;;;9.07;8.30;;;;;;;29.46;53.12;75899.84;5106689;27;20264;-75
2021/06/18 10:07:53;;;;;;;9.57;8.67;;;;;;;29.46;53.71;75672.63;5107102;27;20227;-75
2021/06/18 10:10:22;;;;;;;10.13;9.53;;;;;;;29.50;56.16;76467.09;5107327;27;20757;-74
2021/06/18 10:12:50;;;;;;;8.80;8.17;;;;;;;29.62;55.67;76720.03;5106357;27;20207;-74
2021/06/18 10:15:18;;;;;;;9.07;8.43;;;;;;;29.70;54.81;76325.91;5105278;27;20226;-76
2021/06/18 10:17:46;;;;;;;9.80;9.00;;;;;;;29.74;52.77;75295.47;5106041;27;20211;-75
2021/06/18 10:20:15;;;;;;;9.13;8.47;;;;;;;29.72;52.17;74394.56;5105387;27;20203;-75
2021/06/18 10:22:49;;;;;;;9.10;8.40;;;;;;;29.81;52.45;74438.00;5105891;27;20208;-75
2021/06/18 10:25:20;;;;;;;9.20;8.47;;;;;;;29.84;49.69;73212.59;5106562;27;20219;-73
2021/06/18 10:27:48;;;;;;;8.50;8.00;;;;;;;29.88;49.48;72648.19;5105275;27;20311;-73
2021/06/18 10:30:34;;;;;;;8.90;8.30;;;;;;;30.03;49.14;72981.59;5106236;27;20199;-75
2021/06/18 10:33:02;;;;;;;8.67;8.13;;;;;;;30.25;49.13;73149.38;5105797;27;20203;-75
2021/06/18 10:35:59;;;;;;;8.43;7.93;;;;;;;30.37;50.18;73391.06;5106363;27;20216;-74
2021/06/18 10:38:28;;;;;;;9.60;9.00;;;;;;;30.37;48.76;72268.16;5070510;28;20744;-75
2021/06/18 10:40:56;;;;;;;8.73;8.03;;;;;;;30.53;52.44;74382.53;5105464;27;20211;-74
2021/06/18 10:43:38;;;;;;;7.80;7.27;;;;;;;30.61;47.44;72079.63;5105511;27;20195;-75
2021/06/18 10:46:12;;;;;;;8.37;7.67;;;;;;;30.69;49.37;72691.56;5105775;27;20226;-74
2021/06/18 10:48:59;;;;;;;7.33;6.87;;;;;;;30.74;45.97;70653.34;5105658;27;20207;-74
2021/06/18 10:51:32;;;;;;;7.47;6.80;;;;;;;30.82;43.68;69009.22;5104256;27;20288;-76
2021/06/18 10:54:02;;;;;;;7.53;6.87;;;;;;;30.95;45.19;69843.13;5104089;27;20208;-74
2021/06/18 10:57:02;;;;;;;7.77;7.27;;;;;;;31.12;46.55;70745.34;5105160;27;20234;-75
2021/06/18 10:59:42;;;;;;;7.27;6.70;;;;;;;31.19;45.48;69782.66;5100395;27;20298;-75
2021/06/18 11:02:37;;;;;;;7.23;6.70;;;;;;;31.34;44.30;69360.84;5105783;27;20207;-75
2021/06/18 11:05:06;;;;;;;7.13;6.60;;;;;;;31.33;45.15;68633.72;5104823;27;20227;-75
2021/06/18 11:07:34;;;;;;;9.20;7.20;;;;;;;31.44;43.71;68403.56;5106204;27;20332;-74
2021/06/18 11:10:02;;;;;;;7.33;6.70;;;;;;;31.52;42.87;67360.41;5105685;27;20696;-74
2021/06/18 11:12:46;;;;;;;7.10;6.70;;;;;;;31.52;44.46;67389.84;4855956;27;10000754;-74
2021/06/18 11:15:39;;;;;;;7.83;7.43;;;;;;;31.59;45.95;68034.91;5102818;27;20424;-72
2021/06/18 11:18:15;;;;;;;9.70;9.10;;;;;;;31.16;46.76;65878.91;5102163;27;20272;-74
2021/06/18 11:20:59;;;;;;;9.17;8.53;;;;;;;31.18;47.62;66498.25;5104010;27;20203;-75
2021/06/18 11:23:28;;;;;;;9.20;8.30;;;;;;;31.34;48.07;67441.41;5102723;27;20199;-75
2021/06/18 11:26:03;;;;;;;8.67;8.07;;;;;;;31.47;46.74;66974.69;5102660;27;20219;-74
2021/06/18 11:28:50;;;;;;;8.90;8.20;;;;;;;31.78;45.23;67456.53;5102852;27;20292;-75
2021/06/18 11:31:21;;;;;;;8.37;7.77;;;;;;;32.20;46.14;69154.28;5101735;27;20709;-75
2021/06/18 11:33:52;;;;;;;8.80;8.10;;;;;;;32.61;44.29;69533.88;5102727;27;20211;-75
2021/06/18 11:36:52;;;;;;;8.00;7.50;;;;;;;33.21;40.59;69288.78;5103250;27;20276;-75
2021/06/18 11:39:29;;;;;;;8.10;7.70;;;;;;;33.44;41.53;69153.53;5102565;27;20201;-75